Time;durP1;ratioP1;P1;durP2;ratioP2;P2;SDS_P1;SDS_P2;PMS_P1;PMS_P2;Temp;Humidity;BMP_temperature;BMP_pressure;BME280_temperature;BME280_humidity;BME280_pressure;Samples;Min_cycle;Max_cycle;Signal;HPM_P1;HPM_P2
2023/10/10 00:01:43;;;;;;;8.52;4.82;;;;;;;-148.88;100.00;-17125.47;5037301;28;20022;-86
2023/10/10 00:04:47;;;;;;;11.15;5.13;;;;;;;-148.88;100.00;-17125.47;5032769;28;20040;-87
2023/10/10 00:07:14;;;;;;;7.43;4.63;;;;;;;-148.88;100.00;-17125.47;5033520;28;20065;-85
2023/10/10 00:09:51;;;;;;;8.45;4.90;;;;;;;-148.88;100.00;-17125.47;5034237;28;20018;-86
2023/10/10 00:12:19;;;;;;;12.50;5.28;;;;;;;-148.88;100.00;-17125.47;5034386;28;20044;-87
2023/10/10 00:15:13;;;;;;;6.95;4.65;;;;;;;-148.88;100.00;-17125.47;5035231;28;20080;-86
2023/10/10 00:17:40;;;;;;;;;;;;;;;-148.88;100.00;-17125.47;5034396;28;20025;-86
2023/10/10 00:20:16;;;;;;;7.97;4.72;;;;;;;-148.88;100.00;-17125.47;5034615;28;19917;-87
2023/10/10 00:22:58;;;;;;;6.72;4.60;;;;;;;-148.88;100.00;-17125.47;5035858;28;20029;-88
2023/10/10 00:25:33;;;;;;;10.18;5.18;;;;;;;-148.88;100.00;-17125.47;5036087;28;20097;-88
2023/10/10 00:28:05;;;;;;;9.25;5.65;;;;;;;-148.88;100.00;-17125.47;5034668;28;20044;-87
2023/10/10 00:30:35;;;;;;;7.47;5.30;;;;;;;-148.88;100.00;-17125.47;5034335;28;20052;-88
2023/10/10 00:33:04;;;;;;;9.85;5.32;;;;;;;-148.88;100.00;-17125.47;5034200;28;20041;-87
2023/10/10 00:35:32;;;;;;;7.53;4.88;;;;;;;-148.88;100.00;-17125.47;5036340;28;20026;-88
2023/10/10 00:38:07;;;;;;;8.50;4.45;;;;;;;-148.88;100.00;-17125.47;5036848;28;20500;-89
2023/10/10 00:40:38;;;;;;;8.13;4.32;;;;;;;-148.88;100.00;-17125.47;5032621;28;20033;-87
2023/10/10 00:43:45;;;;;;;5.25;4.13;;;;;;;-148.88;100.00;-17125.47;5031958;28;20052;-87
2023/10/10 00:46:13;;;;;;;7.13;3.78;;;;;;;-148.88;100.00;-17125.47;5033396;28;20116;-88
2023/10/10 00:48:45;;;;;;;9.95;5.00;;;;;;;-148.88;100.00;-17125.47;5035411;28;20116;-89
2023/10/10 00:51:21;;;;;;;8.05;4.15;;;;;;;-148.88;100.00;-17125.47;5034851;28;20041;-87
2023/10/10 00:53:55;;;;;;;9.43;4.47;;;;;;;-148.88;100.00;-17125.47;5034538;28;20040;-89
2023/10/10 00:56:22;;;;;;;7.88;4.32;;;;;;;-148.88;100.00;-17125.47;5033922;28;20025;-89
2023/10/10 00:58:48;;;;;;;6.40;4.50;;;;;;;-148.88;100.00;-17125.47;5034390;28;20445;-88
2023/10/10 01:01:19;;;;;;;7.68;4.38;;;;;;;-148.88;100.00;-17125.47;5032969;28;20529;-87
2023/10/10 01:03:50;;;;;;;6.85;4.63;;;;;;;-148.88;100.00;-17125.47;5032779;28;20397;-88
2023/10/10 01:06:24;;;;;;;9.13;5.30;;;;;;;-148.88;100.00;-17125.47;5034289;28;20034;-88
2023/10/10 01:09:40;;;;;;;6.82;4.50;;;;;;;-148.88;100.00;-17125.47;5032800;28;20021;-88
2023/10/10 01:11:37;;;;;;;9.73;5.15;;;;;;;-148.88;100.00;-17125.47;5023125;28;20061;-89
2023/10/10 01:14:04;;;;;;;11.07;5.07;;;;;;;-148.88;100.00;-17125.47;5034795;28;20064;-88
2023/10/10 01:16:29;;;;;;;6.18;4.47;;;;;;;-148.88;100.00;-17125.47;5034294;28;20021;-88
2023/10/10 01:18:57;;;;;;;7.47;4.65;;;;;;;-148.88;100.00;-17125.47;5034078;28;20101;-88
2023/10/10 01:21:32;;;;;;;8.43;5.35;;;;;;;-148.88;100.00;-17125.47;5034235;28;20025;-88
2023/10/10 01:24:05;;;;;;;10.40;5.30;;;;;;;-148.88;100.00;-17125.47;5032617;28;20028;-87
2023/10/10 01:26:37;;;;;;;9.15;5.60;;;;;;;-148.88;100.00;-17125.47;5034380;28;20468;-88
2023/10/10 01:29:25;;;;;;;8.13;5.15;;;;;;;-148.88;100.00;-17125.47;5033167;28;20026;-88
2023/10/10 01:31:54;;;;;;;9.27;5.72;;;;;;;-148.88;100.00;-17125.47;5034103;28;20458;-87
2023/10/10 01:34:39;;;;;;;11.32;6.20;;;;;;;-148.88;100.00;-17125.47;5032136;28;20036;-87
2023/10/10 01:37:14;;;;;;;12.32;6.30;;;;;;;-148.88;100.00;-17125.47;5032771;28;20025;-88
2023/10/10 01:40:06;;;;;;;10.25;6.35;;;;;;;-148.88;100.00;-17125.47;5033845;28;20457;-88
2023/10/10 01:42:36;;;;;;;8.98;6.35;;;;;;;-148.88;100.00;-17125.47;5031932;28;20040;-89
2023/10/10 01:45:07;;;;;;;10.27;6.72;;;;;;;-148.88;100.00;-17125.47;5032225;28;20029;-87
2023/10/10 01:47:39;;;;;;;12.38;6.35;;;;;;;-148.88;100.00;-17125.47;5032272;28;20464;-88
2023/10/10 01:50:10;;;;;;;9.50;6.38;;;;;;;-148.88;100.00;-17125.47;5032195;28;20021;-88
2023/10/10 01:52:46;;;;;;;10.35;6.60;;;;;;;-148.88;100.00;-17125.47;5033652;28;20507;-89
2023/10/10 01:55:12;;;;;;;10.75;6.18;;;;;;;-148.88;100.00;-17125.47;5031989;28;20064;-88
2023/10/10 01:57:37;;;;;;;10.13;5.90;;;;;;;-148.88;100.00;-17125.47;5033326;28;20060;-88
2023/10/10 02:00:19;;;;;;;9.57;5.85;;;;;;;-148.88;100.00;-17125.47;5033206;28;20025;-88
2023/10/10 02:02:45;;;;;;;8.38;5.80;;;;;;;-148.88;100.00;-17125.47;5031855;28;20025;-87
2023/10/10 02:05:13;;;;;;;11.18;5.90;;;;;;;-148.88;100.00;-17125.47;5033181;28;20022;-88
2023/10/10 02:07:41;;;;;;;11.00;6.13;;;;;;;-148.88;100.00;-17125.47;5033170;28;20104;-88
2023/10/10 02:10:13;;;;;;;9.40;6.20;;;;;;;-148.88;100.00;-17125.47;5031603;28;20536;-88
2023/10/10 02:12:44;;;;;;;10.57;6.00;;;;;;;-148.88;100.00;-17125.47;5031736;28;20038;-88
2023/10/10 02:15:18;;;;;;;8.88;6.38;;;;;;;-148.88;100.00;-17125.47;5031754;28;20021;-87
2023/10/10 02:17:50;;;;;;;;;;;;;;;-148.88;100.00;-17125.47;5033902;28;20026;-88
2023/10/10 02:22:53;;;;;;;11.65;6.20;;;;;;;-148.88;100.00;-17125.47;5033448;28;20030;-88
2023/10/10 02:27:55;;;;;;;11.50;6.45;;;;;;;-148.88;100.00;-17125.47;5032976;28;20029;-88
2023/10/10 02:30:34;;;;;;;12.82;6.13;;;;;;;-148.88;100.00;-17125.47;5031411;28;20089;-87
2023/10/10 02:35:54;;;;;;;9.35;6.20;;;;;;;-148.88;100.00;-17125.47;5033271;28;20025;-88
2023/10/10 02:38:34;;;;;;;9.88;6.50;;;;;;;-148.88;100.00;-17125.47;5032829;28;20031;-87
2023/10/10 02:46:41;;;;;;;10.23;5.97;;;;;;;-148.88;100.00;-17125.47;5037298;28;20029;-88
2023/10/10 02:49:22;;;;;;;9.63;5.72;;;;;;;-148.88;100.00;-17125.47;5035491;28;20533;-88
2023/10/10 02:51:48;;;;;;;8.35;5.57;;;;;;;-148.88;100.00;-17125.47;5037360;28;20029;-88
2023/10/10 02:56:57;;;;;;;10.40;6.10;;;;;;;-148.88;100.00;-17125.47;5037314;28;20025;-88
2023/10/10 02:59:38;;;;;;;12.30;6.40;;;;;;;-148.88;100.00;-17125.47;5036426;28;20456;-89
2023/10/10 03:02:11;;;;;;;9.15;6.53;;;;;;;-148.88;100.00;-17125.47;5035437;28;20029;-88
2023/10/10 03:07:28;;;;;;;10.75;7.40;;;;;;;-148.88;100.00;-17125.47;5036432;28;20030;-87
2023/10/10 03:12:30;;;;;;;15.73;9.63;;;;;;;-148.88;100.00;-17125.47;5036288;28;20545;-89
2023/10/10 03:15:12;;;;;;;14.13;9.02;;;;;;;-148.88;100.00;-17125.47;5036152;28;20025;-89
2023/10/10 03:17:48;;;;;;;15.85;10.70;;;;;;;-148.88;100.00;-17125.47;5034797;28;20032;-88
2023/10/10 03:20:48;;;;;;;13.30;9.73;;;;;;;-148.88;100.00;-17125.47;5036239;28;20040;-88
2023/10/10 03:25:52;;;;;;;16.73;11.30;;;;;;;-148.88;100.00;-17125.47;5036276;28;20037;-88
2023/10/10 03:28:20;;;;;;;15.23;11.38;;;;;;;-148.88;100.00;-17125.47;5034604;28;20412;-89
2023/10/10 03:31:09;;;;;;;17.70;10.95;;;;;;;-148.88;100.00;-17125.47;5034505;28;20538;-88
2023/10/10 03:33:37;;;;;;;14.15;11.40;;;;;;;-148.88;100.00;-17125.47;5034602;28;20025;-88
2023/10/10 03:36:30;;;;;;;16.65;11.35;;;;;;;-148.88;100.00;-17125.47;5035722;28;20032;-88
2023/10/10 05:23:30;;;;;;;16.90;12.32;;;;;;;-148.88;100.00;-17125.47;5035940;28;20068;-87
2023/10/10 05:25:07;;;;;;;37.92;22.65;;;;;;;-148.88;100.00;-17125.47;5034045;28;20293;-88
2023/10/10 05:27:33;;;;;;;33.25;21.27;;;;;;;-148.88;100.00;-17125.47;5032738;28;20628;-87
2023/10/10 05:30:02;;;;;;;32.25;21.15;;;;;;;-148.88;100.00;-17125.47;5033558;28;20024;-88
2023/10/10 05:32:30;;;;;;;36.70;22.80;;;;;;;-148.88;100.00;-17125.47;5032226;28;20029;-87
2023/10/10 05:34:58;;;;;;;31.13;21.33;;;;;;;-148.88;100.00;-17125.47;5034031;28;20064;-87
2023/10/10 05:37:24;;;;;;;34.47;21.27;;;;;;;-148.88;100.00;-17125.47;5033922;28;20032;-87
2023/10/10 05:39:56;;;;;;;28.58;20.55;;;;;;;-148.88;100.00;-17125.47;5033592;28;20379;-87
2023/10/10 05:42:25;;;;;;;33.78;21.73;;;;;;;-148.88;100.00;-17125.47;5032149;28;20407;-87
2023/10/10 05:44:51;;;;;;;34.25;23.00;;;;;;;-148.88;100.00;-17125.47;5032490;28;20017;-87
2023/10/10 05:47:17;;;;;;;35.70;21.77;;;;;;;-148.88;100.00;-17125.47;5032145;28;20021;-86
2023/10/10 05:49:43;;;;;;;34.25;20.80;;;;;;;-148.88;100.00;-17125.47;5032253;28;20032;-87
2023/10/10 05:52:08;;;;;;;30.85;20.92;;;;;;;-148.88;100.00;-17125.47;5033674;28;20398;-87
2023/10/10 05:54:34;;;;;;;35.95;22.70;;;;;;;-148.88;100.00;-17125.47;5033434;28;20343;-87
2023/10/10 05:56:59;;;;;;;31.13;20.77;;;;;;;-148.88;100.00;-17125.47;5033064;28;20144;-87
2023/10/10 05:59:28;;;;;;;29.30;19.98;;;;;;;-148.88;100.00;-17125.47;5032007;28;20021;-87
2023/10/10 06:01:53;;;;;;;32.20;22.52;;;;;;;-148.88;100.00;-17125.47;5034086;28;20032;-86
2023/10/10 06:04:19;;;;;;;32.50;21.27;;;;;;;-148.88;100.00;-17125.47;5033423;28;20021;-88
2023/10/10 06:06:46;;;;;;;37.58;22.48;;;;;;;-148.88;100.00;-17125.47;5033139;28;20050;-87
2023/10/10 06:09:18;;;;;;;33.47;21.80;;;;;;;-148.88;100.00;-17125.47;5033288;28;20032;-88
2023/10/10 06:11:44;;;;;;;35.80;22.77;;;;;;;-148.88;100.00;-17125.47;5032569;28;20067;-88
2023/10/10 06:14:11;;;;;;;33.08;22.63;;;;;;;-148.88;100.00;-17125.47;5033006;28;20068;-87
2023/10/10 06:16:37;;;;;;;40.67;24.05;;;;;;;-148.88;100.00;-17125.47;5031891;28;20470;-87
2023/10/10 06:19:03;;;;;;;34.50;23.67;;;;;;;-148.88;100.00;-17125.47;5031524;28;20108;-87
2023/10/10 06:21:29;;;;;;;39.50;25.65;;;;;;;-148.88;100.00;-17125.47;5031797;28;20029;-88
2023/10/10 06:23:55;;;;;;;37.38;24.73;;;;;;;-148.88;100.00;-17125.47;5031601;28;20057;-88
2023/10/10 06:26:21;;;;;;;38.78;24.50;;;;;;;-148.88;100.00;-17125.47;5031572;28;20116;-87
2023/10/10 06:28:53;;;;;;;32.83;22.17;;;;;;;-148.88;100.00;-17125.47;5031607;28;20025;-87
2023/10/10 06:31:27;;;;;;;36.67;25.00;;;;;;;-148.88;100.00;-17125.47;5031632;28;20017;-87
2023/10/10 06:33:57;;;;;;;37.10;24.55;;;;;;;-148.88;100.00;-17125.47;5031498;28;20021;-88
2023/10/10 06:41:42;;;;;;;33.90;23.08;;;;;;;-148.88;100.00;-17125.47;5032964;28;20063;-90
2023/10/10 06:44:14;;;;;;;35.83;24.73;;;;;;;-148.88;100.00;-17125.47;5031490;28;20021;-86
2023/10/10 06:46:46;;;;;;;38.30;26.15;;;;;;;-148.88;100.00;-17125.47;5031599;28;20052;-86
2023/10/10 06:49:12;;;;;;;41.03;25.70;;;;;;;-148.88;100.00;-17125.47;5031560;28;20501;-87
2023/10/10 06:51:41;;;;;;;37.72;25.25;;;;;;;-148.88;100.00;-17125.47;5033002;28;20026;-86
2023/10/10 06:54:19;;;;;;;41.97;25.50;;;;;;;-148.88;100.00;-17125.47;5031606;28;20037;-86
2023/10/10 06:56:55;;;;;;;42.72;27.13;;;;;;;-148.88;100.00;-17125.47;5033134;28;20382;-88
2023/10/10 06:59:27;;;;;;;45.45;28.25;;;;;;;-148.88;100.00;-17125.47;5032997;28;20143;-86
2023/10/10 07:02:13;;;;;;;40.58;26.52;;;;;;;-148.88;100.00;-17125.47;5031681;28;20084;-87
2023/10/10 07:04:39;;;;;;;42.97;28.40;;;;;;;-148.88;100.00;-17125.47;5033127;28;20105;-87
2023/10/10 07:07:06;;;;;;;45.75;28.23;;;;;;;-148.88;100.00;-17125.47;5033228;28;20049;-88
2023/10/10 07:09:31;;;;;;;46.15;28.35;;;;;;;-148.88;100.00;-17125.47;5032790;28;20104;-87
2023/10/10 07:12:09;;;;;;;50.45;29.38;;;;;;;-148.88;100.00;-17125.47;5031545;28;20052;-87
2023/10/10 07:14:43;;;;;;;47.42;29.23;;;;;;;-148.88;100.00;-17125.47;5032817;28;20075;-88
2023/10/10 07:17:11;;;;;;;;;;;;;;;-148.88;100.00;-17125.47;5032278;28;20032;-87
2023/10/10 07:22:34;;;;;;;55.50;31.77;;;;;;;-148.88;100.00;-17125.47;4992112;28;20450;-88
2023/10/10 07:25:07;;;;;;;54.65;33.22;;;;;;;-148.88;100.00;-17125.47;5031159;28;20033;-88
2023/10/10 07:27:40;;;;;;;51.85;30.98;;;;;;;-148.88;100.00;-17125.47;5034324;28;20496;-87
2023/10/10 07:30:17;;;;;;;55.97;33.65;;;;;;;-148.88;100.00;-17125.47;5034570;28;20116;-88
2023/10/10 07:32:50;;;;;;;62.28;34.13;;;;;;;-148.88;100.00;-17125.47;5034742;28;20060;-87
2023/10/10 07:35:16;;;;;;;58.70;33.27;;;;;;;-148.88;100.00;-17125.47;5033912;28;20053;-87
2023/10/10 07:37:43;;;;;;;59.63;33.70;;;;;;;-148.88;100.00;-17125.47;5034939;28;20361;-87
2023/10/10 07:40:28;;;;;;;62.03;34.60;;;;;;;-148.88;100.00;-17125.47;5034816;28;20034;-88
2023/10/10 07:42:59;;;;;;;61.60;34.70;;;;;;;-148.88;100.00;-17125.47;5034814;28;20660;-88
2023/10/10 07:45:33;;;;;;;70.95;38.28;;;;;;;-148.88;100.00;-17125.47;5034910;28;20477;-88
2023/10/10 07:50:35;;;;;;;67.78;37.40;;;;;;;-148.88;100.00;-17125.47;5035574;28;20026;-86
2023/10/10 07:53:04;;;;;;;74.47;40.00;;;;;;;-148.88;100.00;-17125.47;5035546;28;20374;-87
2023/10/10 07:55:34;;;;;;;79.97;42.53;;;;;;;-148.88;100.00;-17125.47;5035629;28;20045;-88
2023/10/10 07:57:59;;;;;;;80.00;42.63;;;;;;;-148.88;100.00;-17125.47;5034423;28;20109;-87
2023/10/10 08:00:39;;;;;;;83.43;42.53;;;;;;;-148.88;100.00;-17125.47;5035245;28;20029;-88
2023/10/10 08:03:12;;;;;;;83.85;43.50;;;;;;;-148.88;100.00;-17125.47;5034773;28;20025;-87
2023/10/10 08:05:43;;;;;;;78.00;41.58;;;;;;;-148.88;100.00;-17125.47;5034233;28;20025;-89
2023/10/10 08:08:13;;;;;;;76.20;42.88;;;;;;;-148.88;100.00;-17125.47;5035715;28;20075;-87
2023/10/10 08:10:39;;;;;;;79.55;41.22;;;;;;;-148.88;100.00;-17125.47;5033618;28;20022;-87
2023/10/10 08:13:10;;;;;;;75.93;42.33;;;;;;;-148.88;100.00;-17125.47;5034002;28;20037;-88
2023/10/10 08:15:56;;;;;;;79.78;42.78;;;;;;;-148.88;100.00;-17125.47;5035041;28;20027;-87
2023/10/10 08:21:10;;;;;;;77.70;42.95;;;;;;;-148.88;100.00;-17125.47;5034213;28;20033;-86
2023/10/10 08:23:42;;;;;;;90.60;43.80;;;;;;;-148.88;100.00;-17125.47;5034613;28;20086;-88
2023/10/10 08:26:17;;;;;;;88.68;44.42;;;;;;;-148.88;100.00;-17125.47;5034369;28;20025;-88
2023/10/10 08:28:44;;;;;;;78.25;41.78;;;;;;;-148.88;100.00;-17125.47;5034221;28;20036;-89
2023/10/10 08:31:09;;;;;;;84.95;43.47;;;;;;;-148.88;100.00;-17125.47;5034692;28;20026;-86
2023/10/10 08:33:36;;;;;;;81.95;41.67;;;;;;;-148.88;100.00;-17125.47;5034895;28;20028;-88
2023/10/10 08:36:01;;;;;;;84.13;43.20;;;;;;;-148.88;100.00;-17125.47;5033676;28;20507;-86
2023/10/10 08:38:27;;;;;;;77.80;42.05;;;;;;;-148.88;100.00;-17125.47;5033242;28;20029;-87
2023/10/10 08:40:57;;;;;;;82.35;42.53;;;;;;;-148.88;100.00;-17125.47;5034773;28;20036;-87
2023/10/10 08:43:28;;;;;;;82.50;43.28;;;;;;;-148.88;100.00;-17125.47;5033980;28;20033;-86
2023/10/10 08:46:00;;;;;;;86.05;43.80;;;;;;;-148.88;100.00;-17125.47;5033278;28;20040;-87
2023/10/10 08:48:29;;;;;;;87.47;42.80;;;;;;;-148.88;100.00;-17125.47;5033115;28;20583;-88
2023/10/10 08:50:55;;;;;;;87.53;42.33;;;;;;;-148.88;100.00;-17125.47;5033062;28;20167;-86
2023/10/10 08:53:22;;;;;;;88.05;43.80;;;;;;;-148.88;100.00;-17125.47;5034308;28;20060;-87
2023/10/10 08:55:56;;;;;;;80.80;41.13;;;;;;;-148.88;100.00;-17125.47;5034381;28;20061;-87
2023/10/10 08:58:22;;;;;;;85.90;40.92;;;;;;;-148.88;100.00;-17125.47;5032934;28;20029;-86
2023/10/10 09:00:48;;;;;;;86.18;41.53;;;;;;;-148.88;100.00;-17125.47;5033199;28;20025;-89
2023/10/10 09:03:14;;;;;;;78.57;38.55;;;;;;;-148.88;100.00;-17125.47;5034195;28;20052;-88
2023/10/10 09:05:40;;;;;;;87.05;40.58;;;;;;;-148.88;100.00;-17125.47;5033752;28;20064;-87
2023/10/10 09:08:14;;;;;;;86.75;42.17;;;;;;;-148.88;100.00;-17125.47;5032802;28;20029;-87
2023/10/10 09:10:43;;;;;;;83.53;41.05;;;;;;;-148.88;100.00;-17125.47;5032768;28;20017;-88
2023/10/10 09:13:09;;;;;;;87.63;42.13;;;;;;;-148.88;100.00;-17125.47;5032831;28;20064;-89
2023/10/10 09:15:36;;;;;;;91.70;42.92;;;;;;;-148.88;100.00;-17125.47;5033013;28;20538;-87
2023/10/10 09:18:12;;;;;;;78.97;39.25;;;;;;;-148.88;100.00;-17125.47;5032991;28;20074;-86
2023/10/10 09:20:38;;;;;;;85.00;41.88;;;;;;;-148.88;100.00;-17125.47;5032716;28;20025;-87
2023/10/10 09:23:25;;;;;;;79.50;38.95;;;;;;;-148.88;100.00;-17125.47;5032525;28;20069;-87
2023/10/10 09:26:29;;;;;;;84.22;41.38;;;;;;;-148.88;100.00;-17125.47;5033365;28;20022;-88
2023/10/10 09:29:13;;;;;;;73.22;38.60;;;;;;;-148.88;100.00;-17125.47;5032297;28;20029;-87
2023/10/10 09:31:45;;;;;;;76.70;40.25;;;;;;;-148.88;100.00;-17125.47;5033978;28;20049;-86
2023/10/10 09:34:12;;;;;;;77.28;39.63;;;;;;;-148.88;100.00;-17125.47;5033272;28;20413;-89
2023/10/10 09:36:39;;;;;;;73.40;39.67;;;;;;;-148.88;100.00;-17125.47;5032441;28;20033;-87
2023/10/10 09:39:08;;;;;;;72.90;38.97;;;;;;;-148.88;100.00;-17125.47;5032440;28;20120;-86
2023/10/10 09:57:58;;;;;;;71.63;42.63;;;;;;;-148.88;100.00;-17125.47;5033556;28;19909;-87
2023/10/10 10:06:38;;;;;;;73.32;40.88;;;;;;;-148.88;100.00;-17125.47;5011188;28;20025;-88
2023/10/10 10:09:17;;;;;;;66.88;40.30;;;;;;;-148.88;100.00;-17125.47;5011519;28;20041;-88
2023/10/10 10:12:23;;;;;;;61.80;39.10;;;;;;;-148.88;100.00;-17125.47;5027736;28;20079;-89
2023/10/10 10:15:12;;;;;;;60.78;36.40;;;;;;;-148.88;100.00;-17125.47;5032171;28;20025;-88
2023/10/10 10:17:47;;;;;;;56.65;37.35;;;;;;;-148.88;100.00;-17125.47;5031827;28;20025;-88
2023/10/10 10:21:05;;;;;;;61.55;38.17;;;;;;;-148.88;100.00;-17125.47;5032164;28;20061;-89
2023/10/10 10:23:33;;;;;;;61.20;35.40;;;;;;;-148.88;100.00;-17125.47;5031728;28;20025;-87
2023/10/10 10:26:10;;;;;;;61.92;36.55;;;;;;;-148.88;100.00;-17125.47;5032088;28;20076;-88
2023/10/10 10:28:36;;;;;;;55.65;33.38;;;;;;;-148.88;100.00;-17125.47;5031576;28;20112;-89
2023/10/10 10:31:05;;;;;;;55.05;34.33;;;;;;;-148.88;100.00;-17125.47;5031393;28;20025;-88
2023/10/10 10:33:33;;;;;;;58.35;34.50;;;;;;;-148.88;100.00;-17125.47;5033444;28;20029;-89
2023/10/10 10:36:06;;;;;;;55.28;34.22;;;;;;;-148.88;100.00;-17125.47;5032994;28;20028;-89
2023/10/10 10:38:34;;;;;;;55.10;33.47;;;;;;;-148.88;100.00;-17125.47;5031635;28;20041;-87
2023/10/10 10:41:16;;;;;;;52.83;32.33;;;;;;;-148.88;100.00;-17125.47;5032019;28;20038;-87
2023/10/10 10:43:49;;;;;;;51.08;31.65;;;;;;;-148.88;100.00;-17125.47;5031652;28;20021;-90
2023/10/10 10:46:27;;;;;;;51.55;30.98;;;;;;;-148.88;100.00;-17125.47;5031453;28;20096;-87
2023/10/10 10:49:02;;;;;;;47.70;29.10;;;;;;;-148.88;100.00;-17125.47;5031317;28;20494;-88
2023/10/10 10:51:41;;;;;;;49.75;29.20;;;;;;;-148.88;100.00;-17125.47;5031888;28;20021;-87
2023/10/10 10:54:08;;;;;;;48.97;29.00;;;;;;;-148.88;100.00;-17125.47;5032041;28;20031;-86
2023/10/10 10:59:35;;;;;;;45.08;28.77;;;;;;;-148.88;100.00;-17125.47;5032679;28;20087;-88
2023/10/10 11:02:00;;;;;;;47.67;27.42;;;;;;;-148.88;100.00;-17125.47;5035477;28;20029;-89
2023/10/10 11:07:06;;;;;;;45.30;25.75;;;;;;;-148.88;100.00;-17125.47;5036831;28;20025;-88
2023/10/10 11:09:34;;;;;;;42.15;25.83;;;;;;;-148.88;100.00;-17125.47;5036130;28;20025;-88
2023/10/10 11:12:02;;;;;;;37.05;22.88;;;;;;;-148.88;100.00;-17125.47;5035344;28;20025;-88
2023/10/10 11:14:31;;;;;;;36.55;23.08;;;;;;;-148.88;100.00;-17125.47;5036501;28;20029;-88
2023/10/10 11:16:57;;;;;;;35.03;22.85;;;;;;;-148.88;100.00;-17125.47;5035761;28;20022;-88
2023/10/10 11:21:59;;;;;;;36.97;21.92;;;;;;;-148.88;100.00;-17125.47;5036625;28;20033;-89
2023/10/10 11:24:29;;;;;;;37.05;21.65;;;;;;;-148.88;100.00;-17125.47;5035070;28;20124;-89
2023/10/10 11:29:45;;;;;;;36.78;20.63;;;;;;;-148.88;100.00;-17125.47;5036380;28;20026;-89
2023/10/10 11:32:24;;;;;;;35.15;20.20;;;;;;;-148.88;100.00;-17125.47;5036021;28;20053;-88
2023/10/10 11:34:51;;;;;;;32.83;19.92;;;;;;;-148.88;100.00;-17125.47;5034487;28;20029;-89
2023/10/10 11:37:23;;;;;;;34.28;20.88;;;;;;;-148.88;100.00;-17125.47;5035697;28;20034;-89
2023/10/10 11:39:52;;;;;;;31.48;19.90;;;;;;;-148.88;100.00;-17125.47;5035104;28;20053;-87
2023/10/10 11:42:35;;;;;;;30.05;19.02;;;;;;;-148.88;100.00;-17125.47;5035510;28;20026;-88
2023/10/10 11:45:04;;;;;;;30.83;18.40;;;;;;;-148.88;100.00;-17125.47;5035605;28;20543;-87
2023/10/10 11:47:30;;;;;;;28.38;19.25;;;;;;;-148.88;100.00;-17125.47;5034593;28;20057;-88
2023/10/10 11:50:05;;;;;;;27.98;17.85;;;;;;;-148.88;100.00;-17125.47;5035899;28;20072;-88
2023/10/10 11:52:35;;;;;;;28.52;18.35;;;;;;;-148.88;100.00;-17125.47;5035103;28;20052;-88
2023/10/10 11:55:00;;;;;;;31.30;18.65;;;;;;;-148.88;100.00;-17125.47;5035962;28;20032;-88
2023/10/10 11:57:29;;;;;;;27.90;17.25;;;;;;;-148.88;100.00;-17125.47;5035628;28;20401;-87
2023/10/10 12:00:07;;;;;;;25.27;17.10;;;;;;;-148.88;100.00;-17125.47;5034134;28;20018;-86
2023/10/10 12:02:39;;;;;;;27.50;17.90;;;;;;;-148.88;100.00;-17125.47;5035373;28;20541;-89
2023/10/10 12:07:58;;;;;;;26.58;17.42;;;;;;;-148.88;100.00;-17125.47;5035425;28;20091;-84
2023/10/10 12:10:47;;;;;;;24.80;16.45;;;;;;;-148.88;100.00;-17125.47;5035307;28;20017;-88
2023/10/10 12:13:19;;;;;;;25.75;16.55;;;;;;;-148.88;100.00;-17125.47;5034077;28;20105;-87
2023/10/10 12:15:46;;;;;;;23.05;15.68;;;;;;;-148.88;100.00;-17125.47;5034391;28;20037;-87
2023/10/10 12:18:13;;;;;;;25.90;16.45;;;;;;;-148.88;100.00;-17125.47;5035722;28;20033;-87
2023/10/10 12:20:44;;;;;;;26.48;15.75;;;;;;;-148.88;99.11;-17125.47;5034171;28;20108;-88
2023/10/10 12:23:15;;;;;;;26.23;16.23;;;;;;;-148.88;99.63;-17125.47;5035029;28;20160;-89
2023/10/10 12:25:41;;;;;;;23.13;13.52;;;;;;;-148.88;99.25;-17125.47;5035233;28;20057;-88
2023/10/10 12:28:12;;;;;;;25.80;14.50;;;;;;;-148.88;97.10;-17125.47;5034563;28;20179;-87
2023/10/10 12:30:40;;;;;;;24.17;13.88;;;;;;;-148.88;96.53;-17125.47;5034969;28;20021;-88
2023/10/10 12:33:12;;;;;;;20.27;13.38;;;;;;;-148.88;98.43;-17125.47;5034927;28;20029;-88
2023/10/10 12:35:39;;;;;;;24.85;13.85;;;;;;;-148.88;98.07;-17125.47;5033635;28;20028;-88
2023/10/10 12:38:04;;;;;;;21.75;14.13;;;;;;;-148.88;96.56;-17125.47;5034726;28;20481;-87
2023/10/10 12:40:33;;;;;;;21.73;13.50;;;;;;;-148.88;98.09;-17125.47;5034424;28;20024;-89
2023/10/10 12:43:01;;;;;;;21.02;13.45;;;;;;;-148.88;97.70;-17125.47;5034519;28;20527;-88
2023/10/10 12:45:32;;;;;;;20.20;12.98;;;;;;;-148.88;97.00;-17125.47;5035596;28;20025;-89
2023/10/10 12:47:58;;;;;;;18.70;12.88;;;;;;;-148.88;98.16;-17125.47;5033653;28;20458;-89
2023/10/10 12:50:28;;;;;;;21.98;13.43;;;;;;;-148.88;98.21;-17125.47;5034518;28;20022;-88
2023/10/10 12:53:15;;;;;;;18.95;12.32;;;;;;;-148.88;97.85;-17125.47;5033198;28;20402;-89
2023/10/10 12:55:51;;;;;;;19.25;12.43;;;;;;;-148.88;99.56;-17125.47;5034051;28;20017;-89
2023/10/10 12:58:22;;;;;;;19.60;11.93;;;;;;;-148.88;98.33;-17125.47;5035094;28;20032;-88
2023/10/10 13:00:51;;;;;;;15.63;10.75;;;;;;;-148.88;99.23;-17125.47;5033132;28;20033;-89
2023/10/10 13:03:27;;;;;;;19.10;11.02;;;;;;;-148.88;97.56;-17125.47;5034048;28;20548;-89
2023/10/10 13:06:00;;;;;;;18.05;10.50;;;;;;;-148.88;97.38;-17125.47;5034636;28;20029;-89
2023/10/10 13:08:38;;;;;;;15.57;9.88;;;;;;;-148.88;97.15;-17125.47;5033105;28;20060;-88
2023/10/10 13:11:14;;;;;;;13.73;9.48;;;;;;;-148.88;95.56;-17125.47;5032722;28;20490;-88
2023/10/10 13:13:52;;;;;;;14.70;9.25;;;;;;;-148.88;95.98;-17125.47;5032608;28;20030;-88
2023/10/10 13:19:06;;;;;;;12.95;8.75;;;;;;;-148.88;95.49;-17125.47;5034470;28;20109;-89
2023/10/10 13:21:35;;;;;;;12.90;8.55;;;;;;;-148.88;95.12;-17125.47;5032418;28;20017;-89
2023/10/10 13:24:00;;;;;;;15.15;8.07;;;;;;;-148.88;95.24;-17125.47;5031787;28;20108;-89
2023/10/10 13:26:27;;;;;;;10.85;7.30;;;;;;;-148.88;96.66;-17125.47;5032740;28;20093;-88
2023/10/10 13:28:53;;;;;;;13.40;7.63;;;;;;;-148.88;94.74;-17125.47;5032895;28;20052;-88
2023/10/10 13:31:19;;;;;;;11.90;7.43;;;;;;;-148.88;92.37;-17125.47;5033725;28;20064;-87
2023/10/10 13:33:45;;;;;;;11.18;7.78;;;;;;;-148.88;91.05;-17125.47;5033071;28;20335;-88
2023/10/10 13:36:14;;;;;;;12.55;6.90;;;;;;;-148.88;87.90;-17125.47;5033731;28;20024;-89
2023/10/10 13:38:48;;;;;;;14.65;6.95;;;;;;;-148.88;86.11;-17125.47;5032442;28;20036;-89
2023/10/10 13:41:26;;;;;;;11.32;7.00;;;;;;;-148.88;87.28;-17125.47;5031953;28;20112;-87
2023/10/10 13:43:53;;;;;;;13.93;7.00;;;;;;;-148.88;86.05;-17125.47;5032167;28;20522;-90
2023/10/10 13:46:20;;;;;;;12.15;6.95;;;;;;;-148.88;85.57;-17125.47;5033650;28;20033;-89
2023/10/10 13:48:46;;;;;;;11.00;6.50;;;;;;;-148.88;83.58;-17125.47;5033350;28;20032;-89
2023/10/10 13:51:13;;;;;;;9.82;5.72;;;;;;;-148.88;85.03;-17125.47;5033388;28;20026;-87
2023/10/10 13:53:40;;;;;;;10.82;6.05;;;;;;;-148.88;84.95;-17125.47;5033762;28;20028;-88
2023/10/10 13:56:07;;;;;;;9.05;5.40;;;;;;;-148.88;85.00;-17125.47;5033283;28;20044;-88
2023/10/10 13:58:33;;;;;;;9.73;5.50;;;;;;;-148.88;83.85;-17125.47;5033141;28;20029;-87
2023/10/10 14:01:36;;;;;;;11.80;5.70;;;;;;;-148.88;80.02;-17125.47;5033419;28;20052;-89
2023/10/10 14:03:56;;;;;;;9.60;4.97;;;;;;;-148.88;77.05;-17125.47;5031151;28;20033;-89
2023/10/10 14:06:27;;;;;;;11.13;5.20;;;;;;;-148.88;80.42;-17125.47;5033326;28;20029;-87
2023/10/10 14:08:57;;;;;;;8.45;5.10;;;;;;;-148.88;78.05;-17125.47;5032985;28;20482;-89
2023/10/10 14:11:23;;;;;;;10.07;5.25;;;;;;;-148.88;79.42;-17125.47;5032846;28;20033;-87
2023/10/10 14:13:50;;;;;;;9.05;4.60;;;;;;;-148.88;80.25;-17125.47;5032272;28;20029;-88